Terminal Aerodrome Forecast
Issued by NWS

Home | Current Version | Previous Version | Text Only | Print | Product List | Glossary On
Versions: 1 2 3 4 5 6 7 8 9 10 11 12 13 14
000
FTUS45 KSLC 312339
TAF36U
TAF
K36U 312339Z 0100/0124 VRB05KT P6SM SCT120 BKN200
     FM011200 16010G18KT P6SM VCSH SCT020 BKN040
     FM011800 16014G24KT P6SM SHRA SCT020 BKN040=

USA.gov is the U.S. government's official web portal to all federal, state and local government web resources and services.